Terminal Aerodrome Forecast
Issued by NWS

Current Version | Previous Version | Text Only | Print | Product List | Glossary On
Versions: 1 2 3 4 5 6 7 8 9 10 11 12 13 14 15 16 17 18 19 20 21 22 23 24 25 26 27 28 29 30 31 32 33 34 35 36 37 38 39 40 41 42 43 44 45 46 47
000
FTAK31 PANC 302343 CCA
TAFACD
TAF COR
PACD 302343Z 3100/3124 06005KT P6SM BKN018
      TEMPO 3100/3104 SCT020 BKN080
     FM311300 13003KT 5SM -RA BR OVC008
     FM311900 06005KT P6SM BKN015
     FM312200 01008KT P6SM SCT015 BKN025=

USA.gov is the U.S. government's official web portal to all federal, state and local government web resources and services.